createdAt,value
2022-12-23T00:00:30.294Z,5.51
2022-12-23T00:02:58.800Z,5.55
2022-12-23T00:05:37.315Z,5.49
2022-12-23T00:08:08.323Z,5.52
2022-12-23T00:10:40.362Z,5.52
2022-12-23T00:13:26.897Z,5.49
2022-12-23T00:16:04.073Z,5.50
2022-12-23T00:18:32.880Z,5.45
2022-12-23T00:21:08.797Z,5.51
2022-12-23T00:23:43.939Z,5.51
2022-12-23T00:26:17.711Z,5.43
2022-12-23T00:28:49.725Z,5.42
2022-12-23T00:31:20.157Z,5.51
2022-12-23T00:33:52.005Z,5.48
2022-12-23T00:36:28.193Z,5.48
2022-12-23T00:39:18.918Z,5.43
2022-12-23T00:42:05.057Z,5.38
2022-12-23T00:44:34.004Z,5.35
2022-12-23T00:47:02.568Z,5.41
2022-12-23T00:49:42.245Z,5.31
2022-12-23T00:52:16.589Z,5.13
2022-12-23T00:54:45.566Z,5.05
2022-12-23T00:57:14.354Z,5.09
2022-12-23T00:59:43.336Z,5.23
2022-12-23T01:02:30.748Z,5.18
2022-12-23T01:05:16.755Z,4.99
2022-12-23T01:07:46.730Z,5.07
2022-12-23T01:10:15.355Z,5.11
2022-12-23T01:12:44.018Z,5.15
2022-12-23T01:15:15.929Z,5.25
2022-12-23T01:17:44.555Z,5.34
2022-12-23T01:20:16.175Z,5.25
2022-12-23T01:22:46.621Z,5.30
2022-12-23T01:25:15.569Z,5.21
2022-12-23T01:27:44.521Z,5.33
2022-12-23T01:30:14.631Z,5.18
2022-12-23T01:32:43.179Z,4.94
2022-12-23T01:35:12.000Z,4.94
2022-12-23T01:37:41.558Z,4.82
2022-12-23T01:40:15.844Z,4.71
2022-12-23T01:42:47.533Z,4.66
2022-12-23T01:45:23.007Z,4.62
2022-12-23T01:48:00.176Z,4.53
2022-12-23T01:50:33.822Z,4.55
2022-12-23T01:53:08.649Z,4.46
2022-12-23T01:55:46.780Z,4.33
2022-12-23T01:58:20.866Z,4.26
2022-12-23T02:01:07.008Z,4.20
2022-12-23T02:03:45.572Z,4.23
2022-12-23T02:06:39.784Z,4.27
2022-12-23T02:09:19.282Z,4.27
2022-12-23T02:12:37.437Z,4.30
2022-12-23T02:15:52.831Z,4.27
2022-12-23T02:18:56.315Z,4.28
2022-12-23T02:21:43.317Z,4.32
2022-12-23T02:25:09.662Z,4.36
2022-12-23T02:28:07.619Z,4.39
2022-12-23T02:30:49.923Z,4.47
2022-12-23T02:33:51.594Z,4.50
2022-12-23T02:36:39.618Z,4.50
2022-12-23T02:39:17.358Z,4.50
2022-12-23T02:41:57.767Z,4.53
2022-12-23T02:44:35.894Z,4.66
2022-12-23T02:47:14.160Z,4.71
2022-12-23T02:49:49.894Z,4.60
2022-12-23T02:52:23.564Z,4.58
2022-12-23T02:54:57.787Z,4.61
2022-12-23T02:57:33.676Z,4.61
2022-12-23T03:00:04.517Z,4.53
2022-12-23T03:02:37.951Z,4.47
2022-12-23T03:05:08.416Z,4.47
2022-12-23T03:07:44.116Z,4.44
2022-12-23T03:10:30.349Z,4.47
2022-12-23T03:13:20.122Z,4.56
2022-12-23T03:16:13.942Z,4.68
2022-12-23T03:19:04.157Z,4.81
2022-12-23T03:21:43.319Z,4.96
2022-12-23T03:24:28.917Z,4.91
2022-12-23T03:27:09.760Z,4.88
2022-12-23T03:29:46.708Z,4.90
2022-12-23T03:32:22.254Z,4.77
2022-12-23T03:35:00.508Z,4.76
2022-12-23T03:37:35.210Z,4.67
2022-12-23T03:40:11.644Z,4.70
2022-12-23T03:42:43.735Z,4.78
2022-12-23T03:45:39.894Z,4.80
2022-12-23T03:48:20.518Z,4.80
2022-12-23T03:50:58.508Z,4.75
2022-12-23T03:53:34.733Z,4.81
2022-12-23T03:56:11.007Z,4.85
2022-12-23T03:58:46.656Z,4.85
2022-12-23T04:01:26.810Z,4.86
2022-12-23T04:04:03.525Z,4.89
2022-12-23T04:06:43.149Z,4.95
2022-12-23T04:09:19.831Z,4.95
2022-12-23T04:11:50.724Z,4.94
2022-12-23T04:14:20.308Z,4.92
2022-12-23T04:16:54.958Z,4.92
2022-12-23T04:19:26.654Z,4.92
2022-12-23T04:21:58.412Z,4.94
2022-12-23T04:24:29.848Z,4.95
2022-12-23T04:26:59.524Z,5.00
2022-12-23T04:29:27.973Z,4.94
2022-12-23T04:31:58.104Z,4.97
2022-12-23T04:34:29.514Z,5.02
2022-12-23T04:37:00.596Z,5.00
2022-12-23T04:39:29.233Z,4.99
2022-12-23T04:42:04.973Z,5.00
2022-12-23T04:44:33.815Z,5.04
2022-12-23T04:47:02.577Z,5.02
2022-12-23T04:49:32.892Z,5.09
2022-12-23T04:52:05.721Z,5.10
2022-12-23T04:54:43.905Z,5.14
2022-12-23T04:57:14.847Z,5.09
2022-12-23T04:59:43.890Z,5.08
2022-12-23T05:02:13.119Z,5.05
2022-12-23T05:04:44.232Z,5.07
2022-12-23T05:07:16.470Z,5.09
2022-12-23T05:09:45.661Z,5.08
2022-12-23T05:12:14.458Z,5.11
2022-12-23T05:14:43.924Z,5.07
2022-12-23T05:17:12.762Z,5.13
2022-12-23T05:19:42.395Z,5.14
2022-12-23T05:22:11.299Z,5.13
2022-12-23T05:24:41.671Z,5.14
2022-12-23T05:27:11.263Z,5.12
2022-12-23T05:29:40.219Z,5.10
2022-12-23T05:32:09.268Z,5.18
2022-12-23T05:34:37.943Z,5.12
2022-12-23T05:37:07.508Z,5.16
2022-12-23T05:39:36.251Z,5.15
2022-12-23T05:42:07.200Z,5.11
2022-12-23T05:44:36.734Z,5.10
2022-12-23T05:47:07.279Z,5.07
2022-12-23T05:49:36.598Z,5.12
2022-12-23T05:52:05.456Z,5.20
2022-12-23T05:54:34.293Z,5.16
2022-12-23T05:57:03.349Z,5.19
2022-12-23T05:59:33.515Z,5.19
2022-12-23T06:02:02.402Z,5.18
2022-12-23T06:04:31.085Z,5.22
2022-12-23T06:07:03.084Z,5.16
2022-12-23T06:09:34.774Z,5.21
2022-12-23T06:12:03.362Z,5.20
2022-12-23T06:14:33.657Z,5.20
2022-12-23T06:17:02.253Z,5.22
2022-12-23T06:19:31.410Z,5.21
2022-12-23T06:22:00.379Z,5.20
2022-12-23T06:24:29.384Z,5.14
2022-12-23T06:27:01.265Z,5.20
2022-12-23T06:29:29.873Z,5.23
2022-12-23T06:32:05.904Z,5.24
2022-12-23T06:34:37.648Z,5.23
2022-12-23T06:37:09.162Z,5.20
2022-12-23T06:39:38.099Z,5.29
2022-12-23T06:42:06.901Z,5.26
2022-12-23T06:44:35.619Z,5.23
2022-12-23T06:47:06.118Z,5.27
2022-12-23T06:49:35.252Z,5.21
2022-12-23T06:52:04.005Z,5.23
2022-12-23T06:54:32.821Z,5.25
2022-12-23T06:57:01.337Z,5.22
2022-12-23T06:59:30.924Z,5.21
2022-12-23T07:02:00.876Z,5.20
2022-12-23T07:04:30.979Z,5.20
2022-12-23T07:06:59.994Z,5.24
2022-12-23T07:09:29.041Z,5.20
2022-12-23T07:12:04.937Z,5.29
2022-12-23T07:14:33.426Z,5.23
2022-12-23T07:17:02.094Z,5.26
2022-12-23T07:19:32.912Z,5.24
2022-12-23T07:22:01.949Z,5.22
2022-12-23T07:25:00.291Z,5.26
2022-12-23T07:27:28.895Z,5.26
2022-12-23T07:30:05.124Z,5.22
2022-12-23T07:32:33.919Z,5.20
2022-12-23T07:35:04.329Z,5.22
2022-12-23T07:37:33.195Z,5.16
2022-12-23T07:40:08.100Z,5.24
2022-12-23T07:42:46.222Z,5.22
2022-12-23T07:45:18.160Z,5.27
2022-12-23T07:47:56.638Z,5.28
2022-12-23T07:50:37.660Z,5.33
2022-12-23T07:53:26.436Z,5.32
2022-12-23T07:56:01.863Z,5.30
2022-12-23T07:58:30.762Z,5.29
2022-12-23T08:01:09.752Z,5.34
2022-12-23T08:03:39.793Z,5.35
2022-12-23T08:06:13.779Z,5.35
2022-12-23T08:08:45.573Z,5.33
2022-12-23T08:11:16.518Z,5.33
2022-12-23T08:13:48.321Z,5.36
2022-12-23T08:16:17.229Z,5.41
2022-12-23T08:18:46.739Z,5.36
2022-12-23T08:21:22.356Z,5.38
2022-12-23T08:23:52.359Z,5.34
2022-12-23T08:26:23.653Z,5.37
2022-12-23T08:28:57.357Z,5.36
2022-12-23T08:31:32.035Z,5.34
2022-12-23T08:34:04.059Z,5.31
2022-12-23T08:36:41.170Z,5.28
2022-12-23T08:39:21.066Z,5.27
2022-12-23T08:41:51.430Z,5.27
2022-12-23T08:44:21.429Z,5.25
2022-12-23T08:46:50.495Z,5.27
2022-12-23T08:49:20.614Z,5.25
2022-12-23T08:51:51.378Z,5.20
2022-12-23T08:54:20.637Z,5.23
2022-12-23T08:56:49.117Z,5.27
2022-12-23T08:59:20.129Z,5.34
2022-12-23T09:01:49.780Z,5.27
2022-12-23T09:04:18.947Z,5.20
2022-12-23T09:06:48.996Z,5.15
2022-12-23T09:09:18.222Z,5.15
2022-12-23T09:11:47.614Z,5.15
2022-12-23T09:14:18.443Z,5.17
2022-12-23T09:16:47.165Z,5.11
2022-12-23T09:19:15.732Z,5.03
2022-12-23T09:21:47.878Z,5.03
2022-12-23T09:24:17.976Z,5.07
2022-12-23T09:26:46.885Z,5.11
2022-12-23T09:29:15.480Z,5.10
2022-12-23T09:31:47.170Z,5.15
2022-12-23T09:34:16.078Z,5.14
2022-12-23T09:36:46.286Z,5.10
2022-12-23T09:39:18.310Z,5.13
2022-12-23T09:42:06.420Z,5.19
2022-12-23T09:45:09.826Z,5.25
2022-12-23T09:47:42.737Z,5.25
2022-12-23T09:50:27.416Z,5.25
2022-12-23T09:53:07.673Z,5.26
2022-12-23T09:55:51.290Z,5.29
2022-12-23T09:58:45.130Z,5.23
2022-12-23T10:01:31.355Z,5.18
2022-12-23T10:04:37.740Z,5.20
2022-12-23T10:07:37.577Z,5.27
2022-12-23T10:10:18.044Z,5.28
2022-12-23T10:13:02.357Z,5.29
2022-12-23T10:15:42.226Z,5.41
2022-12-23T10:18:23.123Z,5.52
2022-12-23T10:21:01.729Z,5.55
2022-12-23T10:23:37.734Z,5.67
2022-12-23T10:26:25.584Z,5.70
2022-12-23T10:29:21.271Z,5.69
2022-12-23T10:32:34.051Z,5.68
2022-12-23T10:35:23.487Z,5.63
2022-12-23T10:38:04.265Z,5.73
2022-12-23T10:40:51.591Z,5.77
2022-12-23T10:43:33.126Z,5.73
2022-12-23T10:46:30.110Z,5.81
2022-12-23T10:49:13.408Z,5.84
2022-12-23T10:51:51.127Z,5.75
2022-12-23T10:54:27.775Z,5.75
2022-12-23T10:57:00.131Z,5.73
2022-12-23T10:59:33.083Z,5.74
2022-12-23T11:02:22.514Z,5.73
2022-12-23T11:04:56.182Z,5.75
2022-12-23T11:07:46.671Z,5.86
2022-12-23T11:10:22.062Z,5.99
2022-12-23T11:12:56.895Z,6.03
2022-12-23T11:15:33.615Z,6.03
2022-12-23T11:18:22.291Z,6.06
2022-12-23T11:21:07.074Z,6.16
2022-12-23T11:23:37.574Z,6.24
2022-12-23T11:26:10.659Z,6.26
2022-12-23T11:28:49.568Z,6.33
2022-12-23T11:31:28.718Z,6.34
2022-12-23T11:34:02.890Z,6.25
2022-12-23T11:36:37.373Z,6.18
2022-12-23T11:39:16.415Z,6.17
2022-12-23T11:41:49.181Z,6.11
2022-12-23T11:44:30.861Z,6.16
2022-12-23T11:47:32.730Z,6.19
2022-12-23T11:50:26.038Z,6.23
2022-12-23T11:53:01.876Z,6.32
2022-12-23T11:55:39.788Z,6.34
2022-12-23T11:58:22.842Z,6.37
2022-12-23T12:00:59.727Z,6.34
2022-12-23T12:03:33.721Z,6.30
2022-12-23T12:06:07.955Z,6.12
2022-12-23T12:08:40.151Z,5.99
2022-12-23T12:11:16.484Z,5.95
2022-12-23T12:14:03.728Z,6.00
2022-12-23T12:17:01.184Z,6.12
2022-12-23T12:19:37.075Z,6.18
2022-12-23T12:22:16.005Z,6.16
2022-12-23T12:24:51.752Z,6.27
2022-12-23T12:27:33.312Z,6.32
2022-12-23T12:30:08.853Z,6.40
2022-12-23T12:32:50.227Z,6.53
2022-12-23T12:35:28.249Z,6.62
2022-12-23T12:38:14.635Z,6.64
2022-12-23T12:40:49.831Z,6.52
2022-12-23T12:43:28.971Z,6.49
2022-12-23T12:46:28.707Z,6.44
2022-12-23T12:49:07.373Z,6.40
2022-12-23T12:51:53.468Z,6.34
2022-12-23T12:54:36.709Z,6.28
2022-12-23T12:57:05.563Z,6.13
2022-12-23T12:59:38.228Z,6.03
2022-12-23T13:02:55.119Z,5.98
2022-12-23T13:06:01.961Z,5.98
2022-12-23T13:08:52.675Z,5.93
2022-12-23T13:11:30.048Z,5.98
2022-12-23T13:14:14.443Z,6.01
2022-12-23T13:16:51.535Z,6.05
2022-12-23T13:19:34.388Z,6.03
2022-12-23T13:22:11.715Z,6.01
2022-12-23T13:24:58.541Z,5.99
2022-12-23T13:27:35.586Z,6.02
2022-12-23T13:30:12.246Z,5.99
2022-12-23T13:33:10.385Z,5.99
2022-12-23T13:36:14.278Z,6.02
2022-12-23T13:39:12.741Z,6.11
2022-12-23T13:41:46.592Z,6.09
2022-12-23T13:44:19.543Z,6.11
2022-12-23T13:46:59.841Z,6.15
2022-12-23T13:49:49.969Z,6.14
2022-12-23T13:52:30.718Z,6.11
2022-12-23T13:55:20.192Z,5.92
2022-12-23T13:57:59.767Z,5.73
2022-12-23T14:00:34.226Z,5.46
2022-12-23T14:03:20.363Z,5.21
2022-12-23T14:05:51.132Z,4.93
2022-12-23T14:08:43.452Z,4.58
2022-12-23T14:11:23.497Z,4.38
2022-12-23T14:14:00.077Z,4.39
2022-12-23T14:16:50.578Z,4.24
2022-12-23T14:20:05.851Z,4.05
2022-12-23T14:23:07.263Z,3.84
2022-12-23T14:26:16.094Z,3.58
2022-12-23T14:29:15.493Z,3.47
2022-12-23T14:31:58.253Z,3.35
2022-12-23T14:34:32.054Z,3.24
2022-12-23T14:37:36.364Z,3.15
2022-12-23T14:41:00.558Z,3.01
2022-12-23T14:43:59.500Z,2.79
2022-12-23T14:47:01.637Z,2.62
2022-12-23T14:49:44.138Z,2.49
2022-12-23T14:52:51.450Z,2.34
2022-12-23T14:55:49.824Z,2.16
2022-12-23T14:59:10.334Z,1.94
2022-12-23T15:01:45.308Z,1.76
2022-12-23T15:04:21.894Z,1.64
2022-12-23T15:06:57.635Z,1.58
2022-12-23T15:09:30.061Z,1.47
2022-12-23T15:12:06.307Z,1.37
2022-12-23T15:14:43.590Z,1.31
2022-12-23T15:17:29.971Z,1.26
2022-12-23T15:20:15.587Z,1.18
2022-12-23T15:22:46.854Z,1.23
2022-12-23T15:25:24.740Z,1.20
2022-12-23T15:28:01.179Z,1.15
2022-12-23T15:30:35.108Z,1.00
2022-12-23T15:33:35.062Z,0.83
2022-12-23T15:35:59.353Z,0.63
2022-12-23T15:38:37.381Z,0.50
2022-12-23T15:41:14.975Z,0.34
2022-12-23T15:43:45.918Z,0.20
2022-12-23T15:46:25.327Z,0.12
2022-12-23T15:49:01.859Z,0.02
2022-12-23T15:52:05.821Z,-0.10
2022-12-23T15:54:32.828Z,-0.19
2022-12-23T15:57:05.042Z,-0.24
2022-12-23T15:59:38.913Z,-0.23
2022-12-23T16:02:58.388Z,-0.18
2022-12-23T16:05:08.951Z,-0.20
2022-12-23T16:07:42.012Z,-0.22
2022-12-23T16:10:17.305Z,-0.31
2022-12-23T16:12:46.267Z,-0.35
2022-12-23T16:15:27.116Z,-0.04
2022-12-23T16:18:13.818Z,-0.11
2022-12-23T16:20:46.866Z,-0.04
2022-12-23T16:23:19.140Z,-0.06
2022-12-23T16:25:51.013Z,-0.12
2022-12-23T16:28:24.638Z,-0.26
2022-12-23T16:30:59.554Z,-0.34
2022-12-23T16:33:40.363Z,-0.41
2022-12-23T16:36:23.660Z,-0.44
2022-12-23T16:39:00.011Z,-0.57
2022-12-23T16:41:28.638Z,-0.71
2022-12-23T16:43:59.445Z,-0.84
2022-12-23T16:46:38.690Z,-0.93
2022-12-23T16:49:11.105Z,-0.96
2022-12-23T16:51:41.780Z,-0.97
2022-12-23T16:54:17.565Z,-1.05
2022-12-23T16:56:47.707Z,-1.10
2022-12-23T16:59:17.167Z,-1.11
2022-12-23T17:01:49.330Z,-1.15
2022-12-23T17:04:18.425Z,-1.12
2022-12-23T17:06:47.750Z,-1.16
2022-12-23T17:09:17.744Z,-1.24
2022-12-23T17:11:50.189Z,-1.15
2022-12-23T17:14:21.898Z,-1.20
2022-12-23T17:16:52.612Z,-1.17
2022-12-23T17:19:28.533Z,-1.18
2022-12-23T17:22:04.532Z,-1.08
2022-12-23T17:24:34.635Z,-0.90
2022-12-23T17:27:03.219Z,-0.92
2022-12-23T17:29:31.763Z,-1.00
2022-12-23T17:32:00.977Z,-1.05
2022-12-23T17:34:29.586Z,-1.06
2022-12-23T17:37:02.183Z,-1.09
2022-12-23T17:39:30.859Z,-1.07
2022-12-23T17:42:04.306Z,-1.01
2022-12-23T17:44:32.894Z,-1.24
2022-12-23T17:47:02.347Z,-1.37
2022-12-23T17:49:30.940Z,-1.41
2022-12-23T17:52:02.363Z,-1.45
2022-12-23T17:54:30.904Z,-1.48
2022-12-23T17:57:04.110Z,-1.52
2022-12-23T17:59:32.834Z,-1.49
2022-12-23T18:02:01.660Z,-1.45
2022-12-23T18:04:30.227Z,-1.43
2022-12-23T18:06:59.254Z,-1.38
2022-12-23T18:09:30.360Z,-1.32
2022-12-23T18:12:01.801Z,-1.27
2022-12-23T18:14:32.736Z,-1.28
2022-12-23T18:17:04.469Z,-1.30
2022-12-23T18:19:33.421Z,-1.31
2022-12-23T18:22:02.914Z,-1.31
2022-12-23T18:24:31.450Z,-1.26
2022-12-23T18:27:03.396Z,-1.26
2022-12-23T18:29:33.332Z,-1.29
2022-12-23T18:32:02.721Z,-1.27
2022-12-23T18:34:31.277Z,-1.30
2022-12-23T18:37:00.355Z,-1.35
2022-12-23T18:39:29.059Z,-1.41
2022-12-23T18:41:58.202Z,-1.51
2022-12-23T18:44:29.498Z,-1.60
2022-12-23T18:46:59.760Z,-1.60
2022-12-23T18:49:32.115Z,-1.62
2022-12-23T18:52:00.668Z,-1.59
2022-12-23T18:54:29.876Z,-1.55
2022-12-23T18:57:01.491Z,-1.42
2022-12-23T18:59:31.662Z,-1.34
2022-12-23T19:02:05.242Z,-1.16
2022-12-23T19:04:34.228Z,-1.04
2022-12-23T19:07:02.832Z,-1.00
2022-12-23T19:09:31.630Z,-0.98
2022-12-23T19:12:00.251Z,-0.97
2022-12-23T19:14:28.935Z,-0.97
2022-12-23T19:17:01.992Z,-0.91
2022-12-23T19:19:32.065Z,-0.86
2022-12-23T19:22:00.889Z,-0.82
2022-12-23T19:24:29.748Z,-0.72
2022-12-23T19:26:58.900Z,-0.57
2022-12-23T19:29:30.907Z,-0.64
2022-12-23T19:31:59.703Z,-0.72
2022-12-23T19:34:28.369Z,-0.69
2022-12-23T19:36:58.759Z,-0.60
2022-12-23T19:39:27.991Z,-0.55
2022-12-23T19:41:56.980Z,-0.49
2022-12-23T19:44:26.098Z,-0.33
2022-12-23T19:46:55.170Z,-0.19
2022-12-23T19:49:23.876Z,-0.08
2022-12-23T19:51:52.706Z,0.01
2022-12-23T19:54:22.948Z,0.13
2022-12-23T19:56:52.715Z,0.17
2022-12-23T19:59:22.040Z,0.18
2022-12-23T20:01:50.785Z,0.30
2022-12-23T20:04:19.954Z,0.51
2022-12-23T20:06:48.592Z,0.61
2022-12-23T20:09:17.398Z,0.70
2022-12-23T20:11:49.885Z,0.69
2022-12-23T20:14:21.877Z,0.74
2022-12-23T20:16:50.667Z,0.78
2022-12-23T20:19:23.116Z,0.80
2022-12-23T20:21:52.250Z,0.80
2022-12-23T20:24:20.933Z,0.83
2022-12-23T20:26:51.300Z,0.92
2022-12-23T20:29:19.853Z,0.92
2022-12-23T20:31:48.494Z,0.96
2022-12-23T20:34:19.286Z,1.04
2022-12-23T20:36:48.062Z,0.96
2022-12-23T20:39:16.641Z,0.95
2022-12-23T20:41:45.587Z,0.94
2022-12-23T20:47:04.439Z,0.96
2022-12-23T20:49:33.195Z,0.92
2022-12-23T20:52:02.547Z,0.86
2022-12-23T20:54:33.521Z,0.79
2022-12-23T20:57:05.096Z,0.70
2022-12-23T20:59:35.211Z,0.67
2022-12-23T21:02:03.823Z,0.58
2022-12-23T21:04:32.433Z,0.50
2022-12-23T21:07:01.195Z,0.43
2022-12-23T21:09:30.347Z,0.35
2022-12-23T21:11:59.149Z,0.34
2022-12-23T21:14:27.858Z,0.35
2022-12-23T21:17:00.339Z,0.34
2022-12-23T21:19:29.295Z,0.36
2022-12-23T21:22:01.555Z,0.37
2022-12-23T21:24:30.403Z,0.33
2022-12-23T21:27:02.440Z,0.30
2022-12-23T21:29:30.934Z,0.30
2022-12-23T21:32:01.219Z,0.26
2022-12-23T21:34:30.071Z,0.21
2022-12-23T21:36:59.310Z,0.16
2022-12-23T21:39:28.590Z,0.20
2022-12-23T21:41:57.780Z,0.15
2022-12-23T21:44:27.137Z,0.07
2022-12-23T21:46:58.993Z,-0.02
2022-12-23T21:49:29.417Z,-0.09
2022-12-23T21:51:58.630Z,-0.14
2022-12-23T21:54:27.242Z,-0.15
2022-12-23T21:56:57.840Z,-0.20
2022-12-23T21:59:32.832Z,-0.23
2022-12-23T22:02:03.524Z,-0.28
2022-12-23T22:04:33.440Z,-0.27
2022-12-23T22:07:01.934Z,-0.36
2022-12-23T22:09:30.813Z,-0.45
2022-12-23T22:12:04.128Z,-0.48
2022-12-23T22:14:32.762Z,-0.54
2022-12-23T22:17:01.408Z,-0.59
2022-12-23T22:19:30.334Z,-0.65
2022-12-23T22:22:00.324Z,-0.67
2022-12-23T22:24:28.815Z,-0.69
2022-12-23T22:26:59.199Z,-0.73
2022-12-23T22:29:28.516Z,-0.68
2022-12-23T22:32:00.080Z,-0.61
2022-12-23T22:34:29.094Z,-0.60
2022-12-23T22:36:59.383Z,-0.56
2022-12-23T22:39:28.245Z,-0.51
2022-12-23T22:41:59.469Z,-0.46
2022-12-23T22:44:30.649Z,-0.35
2022-12-23T22:46:59.789Z,-0.32
2022-12-23T22:49:31.499Z,-0.41
2022-12-23T22:52:01.699Z,-0.46
2022-12-23T22:54:30.371Z,-0.42
2022-12-23T22:56:59.105Z,-0.40
2022-12-23T22:59:28.632Z,-0.43
2022-12-23T23:02:00.600Z,-0.47
2022-12-23T23:04:29.279Z,-0.43
2022-12-23T23:07:02.497Z,-0.34
2022-12-23T23:09:31.118Z,-0.34
2022-12-23T23:11:59.998Z,-0.33
2022-12-23T23:14:48.759Z,-0.28
2022-12-23T23:17:17.364Z,-0.33
2022-12-23T23:19:45.848Z,-0.44
2022-12-23T23:22:15.878Z,-0.42
2022-12-23T23:24:44.544Z,-0.42
2022-12-23T23:27:14.199Z,-0.33
2022-12-23T23:29:43.186Z,-0.42
2022-12-23T23:32:12.854Z,-0.48
2022-12-23T23:34:42.324Z,-0.62
2022-12-23T23:37:11.031Z,-0.60
2022-12-23T23:39:40.929Z,-0.54
2022-12-23T23:42:12.598Z,-0.37
2022-12-23T23:44:41.283Z,-0.37
2022-12-23T23:47:09.926Z,-0.47
2022-12-23T23:49:38.669Z,-0.48
2022-12-23T23:52:07.325Z,-0.52
2022-12-23T23:54:36.364Z,-0.59
2022-12-23T23:57:06.438Z,-0.60
2022-12-23T23:59:35.138Z,-0.67
